Middle City East, Pennsylvania
Current Conditions -  °F | °C
As of 1:54 AM on Thursday 27 Nov 2014 (Local Time) from KPHL Reporting Station
Overcast Overcast  
Wind Chill: 31°   Ceiling: 6500
Heat Index: 37°   Visibility: 10mi
Dew Point: 31°   Wind: 8mph
Humidity: 79%   Direction: 280°W
Pressure: 29.96"   Gusts: NA
Location:  39.9531°N, 75.1651°W
Report Text: KPHL 270654Z 28007KT 10SM FEW045 BKN065 OVC110 03/M01 A2996 RMK AO2 SLP145 T00281006 $
Loading
Personal Weather Stations






























Interactive Weather Map New forecast layout! Learn more

10-Day Weather Forecast

Advertisements
Track Severe Weather on mobile